Time;durP1;ratioP1;P1;durP2;ratioP2;P2;SDS_P1;SDS_P2;PMS_P1;PMS_P2;Temp;Humidity;BMP_temperature;BMP_pressure;BME280_temperature;BME280_humidity;BME280_pressure;Samples;Min_cycle;Max_cycle;Signal;HPM_P1;HPM_P2
2021/08/09 00:00:08;;;;;;;3.10;1.90;;;15.70;99.90;;;;;;3573392;40;20237;-78
2021/08/09 00:02:38;;;;;;;2.00;1.55;;;15.50;99.90;;;;;;3573368;40;20268;-77
2021/08/09 00:05:06;;;;;;;4.22;2.00;;;15.10;99.90;;;;;;3573149;40;20295;-79
2021/08/09 00:07:33;;;;;;;2.45;1.95;;;15.30;99.90;;;;;;3573284;40;20299;-79
2021/08/09 00:10:00;;;;;;;2.30;1.77;;;15.30;99.90;;;;;;3573309;40;20715;-77
2021/08/09 00:12:28;;;;;;;1.73;1.58;;;15.50;99.90;;;;;;3573174;40;20235;-77
2021/08/09 00:14:55;;;;;;;3.78;1.70;;;15.40;99.90;;;;;;3572987;40;20240;-78
2021/08/09 00:17:22;;;;;;;2.40;1.77;;;15.30;99.90;;;;;;3573248;40;20604;-77
2021/08/09 00:19:49;;;;;;;4.72;2.25;;;15.10;99.90;;;;;;3564708;40;20237;-77
2021/08/09 00:22:17;;;;;;;3.15;1.67;;;15.20;99.90;;;;;;3572745;40;20587;-77
2021/08/09 00:24:44;;;;;;;2.17;1.30;;;15.40;99.90;;;;;;3572874;40;20232;-80
2021/08/09 00:27:24;;;;;;;3.53;1.75;;;15.50;99.90;;;;;;3573116;40;20304;-78
2021/08/09 00:29:55;;;;;;;6.97;2.00;;;15.70;99.90;;;;;;3573194;40;20239;-80
2021/08/09 00:32:22;;;;;;;2.13;2.00;;;15.70;99.90;;;;;;3564718;40;20647;-77
2021/08/09 00:34:50;;;;;;;3.72;2.70;;;15.50;99.90;;;;;;3564477;40;20337;-78
2021/08/09 00:37:18;;;;;;;3.65;1.45;;;15.50;99.90;;;;;;3556428;40;20252;-80
2021/08/09 00:39:46;;;;;;;2.72;1.80;;;15.60;99.90;;;;;;3564585;40;20248;-77
2021/08/09 00:42:14;;;;;;;2.15;1.70;;;15.60;99.90;;;;;;3564586;40;20302;-78
2021/08/09 00:44:44;;;;;;;4.20;2.17;;;15.60;99.90;;;;;;3564384;40;20225;-77
2021/08/09 00:47:16;;;;;;;4.22;2.00;;;15.60;99.90;;;;;;3555767;40;20241;-79
2021/08/09 00:49:43;;;;;;;4.68;1.92;;;15.80;99.90;;;;;;3564313;40;20228;-78
2021/08/09 00:52:11;;;;;;;2.63;2.08;;;15.90;99.90;;;;;;3563675;40;20232;-78
2021/08/09 00:54:39;;;;;;;4.05;1.77;;;16.00;99.90;;;;;;3555190;40;20240;-76
2021/08/09 00:57:09;;;;;;;2.78;1.98;;;16.10;99.90;;;;;;3563758;40;20619;-76
2021/08/09 00:59:38;;;;;;;4.75;1.63;;;16.10;99.90;;;;;;3563654;40;20288;-76
2021/08/09 01:02:08;;;;;;;2.30;1.35;;;16.20;99.90;;;;;;3555744;40;20233;-76
2021/08/09 01:04:39;;;;;;;2.22;1.33;;;16.30;99.90;;;;;;3553141;40;20245;-77
2021/08/09 01:07:08;;;;;;;3.70;1.92;;;16.30;99.90;;;;;;3553016;40;20277;-76
2021/08/09 01:09:43;;;;;;;3.92;1.52;;;16.30;99.90;;;;;;3545783;40;20228;-76
2021/08/09 01:12:17;;;;;;;2.38;1.40;;;16.20;99.90;;;;;;3552872;40;20599;-76
2021/08/09 01:14:58;;;;;;;2.47;1.77;;;16.20;99.90;;;;;;3556796;40;20272;-78
2021/08/09 01:17:32;;;;;;;4.40;1.98;;;16.20;99.90;;;;;;3552318;40;20268;-77
2021/08/09 01:20:23;;;;;;;2.65;2.03;;;16.30;99.90;;;;;;3560349;40;20269;-77
2021/08/09 01:22:56;;;;;;;3.08;1.75;;;16.20;99.90;;;;;;3554328;40;20640;-77
2021/08/09 01:25:36;;;;;;;2.13;1.90;;;16.10;99.90;;;;;;3554421;40;20249;-79
2021/08/09 01:28:09;;;;;;;7.88;2.22;;;16.20;99.90;;;;;;3546186;40;20245;-80
2021/08/09 01:30:37;;;;;;;2.35;1.27;;;16.20;99.90;;;;;;3554303;40;20790;-78
2021/08/09 01:33:09;;;;;;;2.92;2.05;;;16.20;99.90;;;;;;3545881;40;20257;-81
2021/08/09 01:35:38;;;;;;;3.63;1.65;;;16.20;99.90;;;;;;3554324;40;20251;-78
2021/08/09 01:38:07;;;;;;;2.95;2.17;;;16.30;99.90;;;;;;3554218;40;20253;-80
2021/08/09 01:40:38;;;;;;;1.80;1.70;;;16.20;99.90;;;;;;3552227;40;20248;-76
2021/08/09 01:43:07;;;;;;;3.45;2.03;;;16.20;99.90;;;;;;3550350;40;20264;-75
2021/08/09 01:45:36;;;;;;;4.30;2.13;;;16.20;99.90;;;;;;3551983;40;20253;-80
2021/08/09 01:48:04;;;;;;;1.70;1.60;;;16.10;99.90;;;;;;3553598;40;20245;-74
2021/08/09 01:50:37;;;;;;;3.45;2.45;;;16.10;99.90;;;;;;3552852;40;20241;-76
2021/08/09 01:53:07;;;;;;;1.65;1.50;;;16.10;99.90;;;;;;3551785;40;20278;-76
2021/08/09 01:55:37;;;;;;;4.50;2.60;;;16.00;99.90;;;;;;3550310;40;20257;-76
2021/08/09 01:58:06;;;;;;;4.22;2.75;;;16.00;99.90;;;;;;3549427;40;20233;-76
2021/08/09 02:00:34;;;;;;;3.38;2.53;;;16.00;99.90;;;;;;3550456;40;20237;-76
2021/08/09 02:03:02;;;;;;;3.28;2.05;;;16.00;99.90;;;;;;3556789;40;20240;-76
2021/08/09 02:05:32;;;;;;;3.75;2.25;;;16.00;99.90;;;;;;3550705;40;20260;-77
2021/08/09 02:08:04;;;;;;;3.95;2.35;;;16.00;99.90;;;;;;3542259;40;20260;-79
2021/08/09 02:10:32;;;;;;;2.55;1.50;;;16.00;99.90;;;;;;3551981;40;20241;-75
2021/08/09 02:13:09;;;;;;;2.95;1.58;;;16.00;99.90;;;;;;3551591;40;20252;-76
2021/08/09 02:15:43;;;;;;;5.32;2.10;;;16.00;99.90;;;;;;3552139;40;20241;-76
2021/08/09 02:18:19;;;;;;;4.32;1.98;;;16.00;99.90;;;;;;3551054;40;20256;-79
2021/08/09 02:20:48;;;;;;;1.63;1.52;;;16.00;99.90;;;;;;3553598;40;20240;-77
2021/08/09 02:23:21;;;;;;;2.40;1.52;;;15.90;99.90;;;;;;3560334;40;20240;-78
2021/08/09 02:25:53;;;;;;;5.38;2.13;;;15.90;99.90;;;;;;3553982;40;20276;-79
2021/08/09 02:28:28;;;;;;;2.67;1.75;;;15.90;99.90;;;;;;3545935;40;21031;-77
2021/08/09 02:30:58;;;;;;;3.72;1.85;;;15.90;99.90;;;;;;3555108;40;20252;-79
2021/08/09 02:33:28;;;;;;;4.35;2.05;;;15.90;99.90;;;;;;3552418;40;20256;-79
2021/08/09 02:35:57;;;;;;;5.32;1.80;;;16.00;99.90;;;;;;3554762;40;20255;-78
2021/08/09 02:38:25;;;;;;;27.23;2.90;;;16.00;99.90;;;;;;3559411;40;20244;-78
2021/08/09 02:40:53;;;;;;;1.95;1.67;;;16.20;99.90;;;;;;3559407;40;20257;-78
2021/08/09 02:43:20;;;;;;;2.33;1.88;;;16.20;99.90;;;;;;3552156;40;20243;-78
2021/08/09 02:45:57;;;;;;;3.17;2.13;;;16.20;99.90;;;;;;3550784;40;20731;-78
2021/08/09 02:48:25;;;;;;;5.50;2.47;;;16.30;99.90;;;;;;3555930;40;20245;-77
2021/08/09 02:50:52;;;;;;;3.33;1.92;;;16.20;99.90;;;;;;3553714;40;20276;-78
2021/08/09 02:53:22;;;;;;;5.80;2.38;;;16.10;99.90;;;;;;3602177;23;20255;-77
2021/08/09 02:55:52;;;;;;;5.15;2.35;;;16.10;99.90;;;;;;3571542;40;20706;-79
2021/08/09 02:58:20;;;;;;;2.63;2.42;;;15.90;99.90;;;;;;3564366;40;20563;-79
2021/08/09 03:00:48;;;;;;;5.57;2.67;;;15.80;99.90;;;;;;3578633;40;20239;-77
2021/08/09 03:03:21;;;;;;;3.60;2.20;;;15.70;99.90;;;;;;3579116;40;20611;-77
2021/08/09 03:05:51;;;;;;;3.60;2.53;;;15.70;99.90;;;;;;3577549;40;20254;-78
2021/08/09 03:08:20;;;;;;;3.47;1.75;;;15.50;99.90;;;;;;3574751;40;20224;-77
2021/08/09 03:10:48;;;;;;;2.25;1.98;;;15.60;99.90;;;;;;3582505;40;20242;-79
2021/08/09 03:13:15;;;;;;;4.22;2.40;;;15.60;99.90;;;;;;3586129;40;20235;-76
2021/08/09 03:15:43;;;;;;;5.85;2.78;;;15.70;99.90;;;;;;3579981;40;20239;-78
2021/08/09 03:18:10;;;;;;;5.40;1.80;;;15.70;99.90;;;;;;3581083;40;20231;-78
2021/08/09 03:20:39;;;;;;;2.83;1.98;;;15.80;99.90;;;;;;3568020;40;20250;-77
2021/08/09 03:23:06;;;;;;;6.07;2.50;;;15.90;99.90;;;;;;3577006;40;20287;-78
2021/08/09 03:25:34;;;;;;;5.97;2.92;;;15.80;99.90;;;;;;3580226;40;20240;-80
2021/08/09 03:28:02;;;;;;;4.10;2.17;;;15.80;99.90;;;;;;3573973;40;20232;-79
2021/08/09 03:30:29;;;;;;;4.88;2.95;;;15.80;99.90;;;;;;3566674;40;20290;-78
2021/08/09 03:32:57;;;;;;;3.80;2.42;;;15.80;99.90;;;;;;3574517;40;20246;-78
2021/08/09 03:35:24;;;;;;;2.35;1.70;;;15.80;99.90;;;;;;3574717;40;20228;-78
2021/08/09 03:37:54;;;;;;;2.55;2.05;;;15.70;99.90;;;;;;3567774;40;20212;-79
2021/08/09 03:40:22;;;;;;;3.22;2.28;;;15.70;99.90;;;;;;3583358;40;20258;-78
2021/08/09 03:42:49;;;;;;;2.88;2.08;;;15.60;99.90;;;;;;3574927;40;20228;-79
2021/08/09 03:45:16;;;;;;;3.90;2.10;;;15.80;99.90;;;;;;3583312;40;20293;-78
2021/08/09 03:47:43;;;;;;;5.65;2.47;;;15.70;99.90;;;;;;3574796;40;20220;-80
2021/08/09 03:50:11;;;;;;;3.78;2.55;;;15.60;99.90;;;;;;3583231;40;20298;-81
2021/08/09 03:52:46;;;;;;;2.90;1.65;;;15.70;99.90;;;;;;3582636;40;20236;-77
2021/08/09 03:55:15;;;;;;;2.03;1.92;;;15.70;99.90;;;;;;3573573;40;20293;-80
2021/08/09 03:57:42;;;;;;;5.20;3.17;;;15.60;99.90;;;;;;3574144;40;20239;-80
2021/08/09 04:00:10;;;;;;;2.88;2.60;;;15.70;99.90;;;;;;3573486;40;20236;-77
2021/08/09 04:02:46;;;;;;;6.70;3.15;;;15.70;99.90;;;;;;3573735;40;20244;-79
2021/08/09 04:05:21;;;;;;;4.97;2.35;;;15.60;99.90;;;;;;3573675;40;20227;-77
2021/08/09 04:07:50;;;;;;;2.45;2.25;;;15.60;99.90;;;;;;3574291;40;20239;-78
2021/08/09 04:10:20;;;;;;;6.40;2.58;;;15.50;99.90;;;;;;3581420;40;20255;-77
2021/08/09 04:12:49;;;;;;;6.03;2.58;;;15.60;99.90;;;;;;3573647;40;20243;-79
2021/08/09 04:15:20;;;;;;;3.00;1.92;;;15.50;99.90;;;;;;3571919;40;20251;-79
2021/08/09 04:17:47;;;;;;;3.42;2.65;;;15.60;99.90;;;;;;3582446;40;20255;-78
2021/08/09 04:20:14;;;;;;;3.33;2.30;;;15.60;99.90;;;;;;3572740;40;20243;-78
2021/08/09 04:22:41;;;;;;;2.28;2.08;;;15.60;99.90;;;;;;3571599;40;20224;-78
2021/08/09 04:25:09;;;;;;;2.50;2.30;;;15.50;99.90;;;;;;3573231;40;20243;-77
2021/08/09 04:27:40;;;;;;;4.55;2.78;;;15.40;99.90;;;;;;3582127;40;20267;-76
2021/08/09 04:30:08;;;;;;;3.03;2.55;;;15.30;99.90;;;;;;3581741;40;20241;-78
2021/08/09 04:32:40;;;;;;;5.72;2.72;;;15.20;99.90;;;;;;3582156;40;20247;-77
2021/08/09 04:35:10;;;;;;;4.45;2.35;;;15.20;99.90;;;;;;3582000;40;20238;-77
2021/08/09 04:37:38;;;;;;;5.10;3.03;;;15.20;99.90;;;;;;3573596;40;20215;-76
2021/08/09 04:40:07;;;;;;;4.10;2.38;;;15.20;99.90;;;;;;3578782;40;20246;-79
2021/08/09 04:42:38;;;;;;;6.32;2.75;;;15.20;99.90;;;;;;3580005;40;20259;-78
2021/08/09 04:45:07;;;;;;;2.70;2.50;;;15.20;99.90;;;;;;3572836;40;20262;-77
2021/08/09 04:47:35;;;;;;;3.38;2.45;;;15.10;99.90;;;;;;3572810;40;20279;-78
2021/08/09 04:50:03;;;;;;;4.00;2.60;;;15.10;99.90;;;;;;3573490;40;20224;-77
2021/08/09 04:52:31;;;;;;;3.70;2.38;;;15.20;99.90;;;;;;3572715;40;20248;-78
2021/08/09 04:54:59;;;;;;;4.53;2.58;;;15.30;99.90;;;;;;3572107;40;20232;-78
2021/08/09 04:57:26;;;;;;;5.28;3.25;;;15.30;99.90;;;;;;3573001;40;20243;-79
2021/08/09 04:59:55;;;;;;;4.78;2.65;;;15.30;99.90;;;;;;3573668;40;20235;-79
2021/08/09 05:02:22;;;;;;;2.80;2.20;;;15.30;99.90;;;;;;3569432;40;20703;-78
2021/08/09 05:04:49;;;;;;;2.72;2.53;;;15.20;99.90;;;;;;3575930;40;20255;-77
2021/08/09 05:07:18;;;;;;;2.85;2.58;;;15.30;99.90;;;;;;3571285;40;20240;-80
2021/08/09 05:09:46;;;;;;;4.30;2.67;;;15.20;99.90;;;;;;3572481;40;20248;-77
2021/08/09 05:12:13;;;;;;;2.60;1.83;;;15.30;99.90;;;;;;3576051;40;20263;-79
2021/08/09 05:14:43;;;;;;;2.58;2.38;;;15.20;99.90;;;;;;3574422;40;20643;-79
2021/08/09 05:17:12;;;;;;;4.43;2.97;;;15.30;99.90;;;;;;3573396;40;20236;-76
2021/08/09 05:19:41;;;;;;;3.63;2.20;;;15.20;99.90;;;;;;3573853;40;20561;-78
2021/08/09 05:22:08;;;;;;;2.70;2.33;;;15.30;99.90;;;;;;3582757;40;20288;-80
2021/08/09 05:24:35;;;;;;;4.50;2.67;;;15.40;99.90;;;;;;3565638;40;20239;-84
2021/08/09 05:27:03;;;;;;;3.67;2.88;;;15.50;99.90;;;;;;3573620;40;20235;-79
2021/08/09 05:29:31;;;;;;;3.75;2.80;;;15.60;99.90;;;;;;3592537;40;20239;-79
2021/08/09 05:31:59;;;;;;;4.53;2.35;;;15.60;99.90;;;;;;3585235;40;20278;-79
2021/08/09 05:34:41;;;;;;;4.90;2.83;;;15.70;99.90;;;;;;3574344;40;20263;-83
2021/08/09 05:37:22;;;;;;;3.40;2.38;;;15.70;99.90;;;;;;3579777;40;20240;-80
2021/08/09 05:39:52;;;;;;;2.75;2.10;;;15.70;99.90;;;;;;3582278;40;20228;-79
2021/08/09 05:42:27;;;;;;;3.33;2.05;;;15.60;99.90;;;;;;3583024;40;20255;-79
2021/08/09 05:44:55;;;;;;;6.07;3.58;;;15.80;99.90;;;;;;3577414;40;20243;-78
2021/08/09 05:47:22;;;;;;;3.75;2.85;;;15.80;99.90;;;;;;3567522;40;20263;-77
2021/08/09 05:49:53;;;;;;;3.10;1.95;;;15.90;99.90;;;;;;3577650;40;20258;-79
2021/08/09 05:52:21;;;;;;;2.63;2.17;;;15.90;99.90;;;;;;3574668;40;20296;-78
2021/08/09 05:54:54;;;;;;;2.63;2.10;;;16.10;99.90;;;;;;3562195;40;20243;-79
2021/08/09 05:57:22;;;;;;;2.50;2.05;;;16.10;99.90;;;;;;3583114;40;20230;-79
2021/08/09 05:59:50;;;;;;;3.83;2.65;;;16.20;99.90;;;;;;3575754;40;20281;-80
2021/08/09 06:02:22;;;;;;;2.17;1.98;;;16.30;99.90;;;;;;3579674;40;20236;-78
2021/08/09 06:04:55;;;;;;;4.55;2.55;;;16.20;99.90;;;;;;3573053;40;20687;-77
2021/08/09 06:07:22;;;;;;;2.50;2.20;;;16.10;99.90;;;;;;3576842;40;20601;-80
2021/08/09 06:10:01;;;;;;;4.28;2.60;;;15.80;99.90;;;;;;3571547;40;20216;-79
2021/08/09 06:12:33;;;;;;;2.58;1.90;;;15.90;99.90;;;;;;3563240;40;20280;-81
2021/08/09 06:15:01;;;;;;;2.10;1.63;;;16.00;99.90;;;;;;3558455;40;20243;-78
2021/08/09 06:17:35;;;;;;;3.40;2.20;;;15.90;99.90;;;;;;3565144;40;20238;-78
2021/08/09 06:20:05;;;;;;;2.10;1.90;;;15.90;99.90;;;;;;3566684;40;20229;-79
2021/08/09 06:22:35;;;;;;;3.47;2.25;;;16.00;99.90;;;;;;3574418;40;20228;-80
2021/08/09 06:25:12;;;;;;;5.35;2.05;;;16.10;99.90;;;;;;3573206;40;20272;-78
2021/08/09 06:27:41;;;;;;;5.07;2.20;;;16.20;99.90;;;;;;3574307;40;20262;-78
2021/08/09 06:30:09;;;;;;;4.15;2.13;;;16.30;99.90;;;;;;3574378;40;20251;-78
2021/08/09 06:32:37;;;;;;;6.13;2.65;;;16.40;99.90;;;;;;3575465;40;20292;-78
2021/08/09 06:35:08;;;;;;;2.50;2.10;;;16.40;99.90;;;;;;3564324;40;20259;-78
2021/08/09 06:38:02;;;;;;;3.58;2.58;;;16.40;99.90;;;;;;3564321;40;20242;-79
2021/08/09 06:40:30;;;;;;;2.15;1.92;;;16.30;99.90;;;;;;3575190;40;20229;-80
2021/08/09 06:42:57;;;;;;;3.53;2.08;;;16.30;99.90;;;;;;3572071;40;20236;-78
2021/08/09 06:45:27;;;;;;;5.18;2.25;;;16.30;99.90;;;;;;3562300;40;20236;-78
2021/08/09 06:47:54;;;;;;;2.50;1.90;;;16.50;99.90;;;;;;3560759;40;20239;-78
2021/08/09 06:50:25;;;;;;;4.35;2.28;;;16.50;99.90;;;;;;3574115;40;20247;-78
2021/08/09 06:52:52;;;;;;;6.47;1.98;;;16.50;99.90;;;;;;3565659;40;20212;-78
2021/08/09 06:55:20;;;;;;;3.50;2.13;;;16.30;99.90;;;;;;3571359;40;20303;-77
2021/08/09 06:57:48;;;;;;;2.75;1.83;;;16.40;99.90;;;;;;3571695;40;20232;-77
2021/08/09 07:00:15;;;;;;;3.38;2.30;;;16.50;99.90;;;;;;3574633;40;20277;-77
2021/08/09 07:02:42;;;;;;;3.00;2.30;;;16.50;99.90;;;;;;3569853;40;20256;-77
2021/08/09 07:05:10;;;;;;;3.33;2.20;;;16.50;99.90;;;;;;3575562;40;20251;-77
2021/08/09 07:07:42;;;;;;;3.20;2.55;;;16.70;99.90;;;;;;3577385;40;20251;-78
2021/08/09 07:10:11;;;;;;;3.72;2.20;;;16.90;99.90;;;;;;3571619;40;20767;-76
2021/08/09 07:12:39;;;;;;;4.30;2.45;;;17.10;99.90;;;;;;3586171;40;20234;-78
2021/08/09 07:15:07;;;;;;;4.32;2.22;;;17.10;99.90;;;;;;3571473;40;20260;-78
2021/08/09 07:17:39;;;;;;;3.60;1.70;;;17.30;99.90;;;;;;3565169;40;20236;-78
2021/08/09 07:20:09;;;;;;;3.45;1.90;;;17.30;99.90;;;;;;3572549;40;20667;-78
2021/08/09 07:22:42;;;;;;;2.60;2.03;;;17.30;99.90;;;;;;3575440;40;20235;-78
2021/08/09 07:25:11;;;;;;;2.22;1.73;;;17.20;99.90;;;;;;3564497;40;20344;-79
2021/08/09 07:27:40;;;;;;;3.67;2.53;;;17.30;99.90;;;;;;3568713;40;20322;-78
2021/08/09 07:30:11;;;;;;;2.17;1.95;;;17.20;99.90;;;;;;3564798;40;20252;-79
2021/08/09 07:32:39;;;;;;;2.35;1.83;;;17.40;99.90;;;;;;3571743;40;20670;-78
2021/08/09 07:35:07;;;;;;;3.72;2.20;;;17.60;99.90;;;;;;3574720;40;20307;-79
2021/08/09 07:37:35;;;;;;;3.95;2.20;;;17.60;99.90;;;;;;3579950;40;20801;-78
2021/08/09 07:40:04;;;;;;;2.50;1.77;;;17.70;99.90;;;;;;3562785;40;20256;-78
2021/08/09 07:42:31;;;;;;;4.88;1.83;;;17.80;99.90;;;;;;3570258;40;20240;-79
2021/08/09 07:44:59;;;;;;;5.85;2.28;;;17.70;99.90;;;;;;3563797;40;20547;-77
2021/08/09 07:47:28;;;;;;;2.38;1.70;;;17.70;99.90;;;;;;3571095;40;20227;-77
2021/08/09 07:49:55;;;;;;;3.35;2.33;;;17.70;99.90;;;;;;3571773;40;20232;-77
2021/08/09 07:52:23;;;;;;;3.78;1.95;;;17.60;99.90;;;;;;3569140;40;20235;-78
2021/08/09 07:54:53;;;;;;;1.88;1.77;;;17.60;99.90;;;;;;3575164;40;20247;-78
2021/08/09 07:57:23;;;;;;;5.55;2.47;;;17.60;99.90;;;;;;3567593;40;20247;-78
2021/08/09 07:59:53;;;;;;;5.40;1.92;;;17.70;99.90;;;;;;3565823;40;20236;-78
2021/08/09 08:02:21;;;;;;;4.78;2.33;;;17.80;99.90;;;;;;3575082;40;20244;-78
2021/08/09 08:04:48;;;;;;;3.85;1.80;;;17.90;99.90;;;;;;3572730;40;20231;-76
2021/08/09 08:07:15;;;;;;;3.33;2.08;;;18.20;99.90;;;;;;3570603;40;20229;-77
2021/08/09 08:09:42;;;;;;;3.40;1.77;;;18.30;99.90;;;;;;3566663;40;20239;-78
2021/08/09 08:12:09;;;;;;;4.93;2.38;;;18.40;99.90;;;;;;3571137;40;20282;-79
2021/08/09 08:14:41;;;;;;;5.28;2.83;;;18.40;99.90;;;;;;3572867;40;20274;-76
2021/08/09 08:17:09;;;;;;;5.15;2.03;;;18.30;99.90;;;;;;3574707;40;20245;-77
2021/08/09 08:19:37;;;;;;;3.92;1.35;;;18.50;99.90;;;;;;3569619;40;20581;-76
2021/08/09 08:22:06;;;;;;;6.68;2.22;;;18.60;99.90;;;;;;3564215;40;20275;-78
2021/08/09 08:24:36;;;;;;;4.90;1.30;;;18.90;99.90;;;;;;3573156;40;20255;-77
2021/08/09 08:27:04;;;;;;;1.98;1.55;;;19.00;99.90;;;;;;3574771;40;20252;-78
2021/08/09 08:29:31;;;;;;;5.03;1.67;;;19.10;99.90;;;;;;3573797;40;20289;-77
2021/08/09 08:31:59;;;;;;;2.20;1.63;;;18.80;99.90;;;;;;3569688;40;20247;-78
2021/08/09 08:34:33;;;;;;;1.88;1.55;;;18.50;99.90;;;;;;3582966;40;20228;-76
2021/08/09 08:37:08;;;;;;;2.17;1.83;;;18.90;99.90;;;;;;3560504;40;21368;-78
2021/08/09 08:39:35;;;;;;;8.05;2.10;;;19.20;99.90;;;;;;3561042;40;20298;-78
2021/08/09 08:42:03;;;;;;;3.88;2.20;;;19.40;99.90;;;;;;3568523;40;20264;-77
2021/08/09 08:44:31;;;;;;;2.03;1.65;;;19.40;99.90;;;;;;3570320;40;20313;-78
2021/08/09 08:47:00;;;;;;;3.72;1.38;;;19.60;99.90;;;;;;3561888;40;20250;-78
2021/08/09 08:49:29;;;;;;;7.10;2.17;;;20.00;99.90;;;;;;3565469;40;20612;-77
2021/08/09 08:51:59;;;;;;;5.97;2.15;;;19.70;99.90;;;;;;3560191;40;20263;-78
2021/08/09 08:54:29;;;;;;;3.60;1.77;;;19.80;99.90;;;;;;3574595;40;20692;-78
2021/08/09 08:56:58;;;;;;;3.28;2.30;;;19.60;99.90;;;;;;3592215;40;20279;-78
2021/08/09 08:59:25;;;;;;;3.25;1.80;;;19.60;99.90;;;;;;3586598;40;20255;-77
2021/08/09 09:01:53;;;;;;;4.55;1.73;;;19.80;99.90;;;;;;3574955;40;20227;-78
2021/08/09 09:04:26;;;;;;;3.33;1.48;;;19.80;99.90;;;;;;3592323;40;20235;-78
2021/08/09 09:07:00;;;;;;;3.15;1.58;;;20.00;99.90;;;;;;3582734;40;20246;-79
2021/08/09 09:09:30;;;;;;;4.78;2.13;;;20.00;99.90;;;;;;3583792;40;20238;-80
2021/08/09 09:11:58;;;;;;;5.95;1.85;;;20.00;99.90;;;;;;3583611;40;20272;-77
2021/08/09 09:14:28;;;;;;;5.18;1.67;;;19.70;99.90;;;;;;3592194;40;20250;-78
2021/08/09 09:16:55;;;;;;;2.03;1.27;;;19.60;99.90;;;;;;3574426;40;20244;-82
2021/08/09 09:19:36;;;;;;;3.13;1.75;;;19.40;99.90;;;;;;3580169;40;20746;-77
2021/08/09 09:22:07;;;;;;;4.05;1.92;;;19.40;99.90;;;;;;3578651;40;20243;-77
2021/08/09 09:24:35;;;;;;;4.15;1.83;;;19.30;99.90;;;;;;3572486;40;20554;-77
2021/08/09 09:27:06;;;;;;;4.57;2.28;;;19.20;99.90;;;;;;3586168;40;20447;-79
2021/08/09 09:29:36;;;;;;;7.85;2.30;;;19.10;99.90;;;;;;3571863;40;20303;-80
2021/08/09 09:32:18;;;;;;;2.85;1.50;;;19.20;99.90;;;;;;3573721;40;20228;-79
2021/08/09 09:34:52;;;;;;;4.60;1.77;;;19.30;99.90;;;;;;3578018;40;20790;-77
2021/08/09 09:37:25;;;;;;;1.98;1.50;;;19.50;99.90;;;;;;3575519;40;20231;-77
2021/08/09 09:39:52;;;;;;;4.50;1.88;;;19.40;99.90;;;;;;3578850;40;20608;-78
2021/08/09 09:42:20;;;;;;;2.58;1.77;;;19.40;99.90;;;;;;3573746;40;20290;-78
2021/08/09 09:44:47;;;;;;;5.57;2.10;;;19.40;99.90;;;;;;3573362;40;20251;-78
2021/08/09 09:47:23;;;;;;;3.58;1.50;;;19.50;99.90;;;;;;3587444;40;20242;-78
2021/08/09 09:49:53;;;;;;;2.85;1.77;;;19.50;99.90;;;;;;3573658;40;20235;-78
2021/08/09 09:52:36;;;;;;;2.42;1.65;;;19.50;99.90;;;;;;3582184;40;20235;-78
2021/08/09 09:55:06;;;;;;;7.32;2.17;;;19.50;99.90;;;;;;3581176;40;20264;-80
2021/08/09 09:57:33;;;;;;;2.78;2.00;;;19.40;99.90;;;;;;3586579;40;20227;-81
2021/08/09 10:00:12;;;;;;;5.30;2.97;;;19.40;99.90;;;;;;3576629;40;20242;-79
2021/08/09 10:02:43;;;;;;;3.55;2.20;;;19.50;99.90;;;;;;3578763;40;20213;-79
2021/08/09 10:05:14;;;;;;;3.88;2.15;;;19.50;99.90;;;;;;3587608;40;20247;-80
2021/08/09 10:07:52;;;;;;;3.15;2.58;;;19.50;99.90;;;;;;3587581;40;20235;-82
2021/08/09 10:10:23;;;;;;;4.28;1.73;;;19.40;99.90;;;;;;3564869;40;20220;-79
2021/08/09 10:12:52;;;;;;;3.88;2.10;;;19.50;99.90;;;;;;3581947;40;20235;-80
2021/08/09 10:15:21;;;;;;;1.63;1.52;;;19.50;99.90;;;;;;3571894;40;20665;-78
2021/08/09 10:17:52;;;;;;;4.60;2.10;;;19.40;99.90;;;;;;3582335;40;20290;-81
2021/08/09 10:20:25;;;;;;;5.25;2.17;;;19.40;99.90;;;;;;3586765;40;20231;-78
2021/08/09 10:22:59;;;;;;;3.92;1.88;;;19.50;99.90;;;;;;3574630;40;20236;-80
2021/08/09 10:25:51;;;;;;;4.28;2.53;;;19.50;99.90;;;;;;3571857;40;20251;-77
2021/08/09 10:28:20;;;;;;;2.67;1.60;;;19.60;99.90;;;;;;3571658;40;20240;-79
2021/08/09 10:30:47;;;;;;;5.97;2.42;;;19.70;99.90;;;;;;3563319;40;20243;-78
2021/08/09 10:33:51;;;;;;;3.75;1.90;;;19.70;99.90;;;;;;3582174;40;20223;-78
2021/08/09 10:36:21;;;;;;;3.65;2.03;;;19.70;99.90;;;;;;3563030;40;20255;-78
2021/08/09 10:38:49;;;;;;;4.35;2.10;;;19.80;99.90;;;;;;3571543;40;20248;-78
2021/08/09 10:41:34;;;;;;;3.72;2.33;;;19.80;99.90;;;;;;3571930;40;20833;-80
2021/08/09 10:44:25;;;;;;;4.07;2.15;;;19.80;99.90;;;;;;3554901;40;20228;-79
2021/08/09 10:47:00;;;;;;;4.38;1.75;;;20.10;99.90;;;;;;3586299;40;20822;-80
2021/08/09 10:49:50;;;;;;;2.28;2.08;;;20.10;99.90;;;;;;3591703;40;20323;-79
2021/08/09 10:52:40;;;;;;;4.47;2.08;;;19.90;99.90;;;;;;3583257;40;20255;-79
2021/08/09 10:55:51;;;;;;;5.28;1.92;;;19.80;99.90;;;;;;3581500;40;20239;-76
2021/08/09 10:59:00;;;;;;;3.10;1.95;;;19.80;99.90;;;;;;3580939;40;20235;-78
2021/08/09 11:01:47;;;;;;;3.50;1.48;;;20.20;99.90;;;;;;3558507;40;20224;-78
2021/08/09 11:04:18;;;;;;;2.40;1.45;;;20.30;99.90;;;;;;3572707;40;20228;-80
2021/08/09 11:06:54;;;;;;;4.30;2.38;;;20.50;99.90;;;;;;3571346;40;20298;-79
2021/08/09 11:09:45;;;;;;;3.42;1.77;;;20.30;99.90;;;;;;3581208;40;20207;-81
2021/08/09 11:12:23;;;;;;;4.90;1.83;;;20.40;99.90;;;;;;3580029;40;20231;-79
2021/08/09 11:15:14;;;;;;;2.17;1.70;;;20.50;99.90;;;;;;3580990;40;20231;-81
2021/08/09 11:17:56;;;;;;;2.08;1.75;;;20.50;99.90;;;;;;3575806;40;20235;-78
2021/08/09 11:20:26;;;;;;;2.70;1.70;;;20.40;99.90;;;;;;3589585;40;20226;-79
2021/08/09 11:23:28;;;;;;;2.88;1.40;;;20.60;99.90;;;;;;3591510;40;20235;-79
2021/08/09 11:26:00;;;;;;;2.88;1.63;;;20.80;99.90;;;;;;3590517;40;20307;-78
2021/08/09 11:28:27;;;;;;;5.28;1.52;;;20.90;99.90;;;;;;3573004;40;20227;-78
2021/08/09 11:30:56;;;;;;;3.17;1.33;;;21.10;99.90;;;;;;3592302;40;20242;-79
2021/08/09 11:33:28;;;;;;;2.63;1.70;;;21.00;99.90;;;;;;3584392;40;20239;-79
2021/08/09 11:35:56;;;;;;;2.08;1.48;;;21.20;99.90;;;;;;3592930;40;20246;-79
2021/08/09 11:38:24;;;;;;;2.47;1.70;;;21.50;99.90;;;;;;3580592;40;20275;-78
2021/08/09 11:40:53;;;;;;;3.00;1.63;;;21.60;99.90;;;;;;3569556;40;20265;-79
2021/08/09 11:43:28;;;;;;;2.70;1.88;;;21.60;99.90;;;;;;3574343;40;20286;-78
2021/08/09 11:46:03;;;;;;;1.38;1.15;;;21.70;99.90;;;;;;3582620;40;20642;-80
2021/08/09 11:48:33;;;;;;;2.97;1.25;;;21.70;99.90;;;;;;3573098;40;20286;-78
2021/08/09 11:51:02;;;;;;;1.67;1.58;;;21.50;99.90;;;;;;3572904;40;20242;-77
2021/08/09 11:53:30;;;;;;;4.20;2.00;;;21.50;99.90;;;;;;3576082;40;20236;-81
2021/08/09 11:56:08;;;;;;;2.65;1.40;;;21.50;99.90;;;;;;3578550;40;20259;-79
2021/08/09 11:58:37;;;;;;;3.42;1.77;;;21.70;99.90;;;;;;3577627;40;20242;-80
2021/08/09 12:01:07;;;;;;;1.35;1.25;;;21.90;99.90;;;;;;3582107;40;20235;-79
2021/08/09 12:03:41;;;;;;;4.55;1.52;;;21.60;99.90;;;;;;3564523;40;20251;-81
2021/08/09 12:06:33;;;;;;;5.10;1.52;;;21.50;99.90;;;;;;3578807;40;20255;-79
2021/08/09 12:09:01;;;;;;;2.10;1.65;;;21.60;99.90;;;;;;3586083;40;20834;-79
2021/08/09 12:11:31;;;;;;;3.47;1.60;;;21.40;99.90;;;;;;3586583;40;20260;-80
2021/08/09 12:14:08;;;;;;;4.03;1.95;;;21.40;99.90;;;;;;3564149;40;20231;-81
2021/08/09 12:16:50;;;;;;;2.67;1.80;;;21.30;99.90;;;;;;3580148;40;20240;-79
2021/08/09 12:19:19;;;;;;;2.05;1.42;;;21.40;99.90;;;;;;3579667;40;20240;-78
2021/08/09 12:21:47;;;;;;;2.53;1.88;;;21.40;99.90;;;;;;3582631;40;20236;-79
2021/08/09 12:24:21;;;;;;;1.88;1.60;;;21.30;99.90;;;;;;3573489;40;20247;-78
2021/08/09 12:26:52;;;;;;;5.10;1.80;;;21.10;99.90;;;;;;3581353;40;20246;-79
2021/08/09 12:29:22;;;;;;;1.67;1.30;;;21.10;99.90;;;;;;3574091;40;20433;-83
2021/08/09 12:31:51;;;;;;;6.63;2.58;;;21.20;99.90;;;;;;3582765;40;20235;-81
2021/08/09 12:34:22;;;;;;;2.08;1.70;;;21.20;99.90;;;;;;3587159;40;20242;-80
2021/08/09 12:36:51;;;;;;;2.15;1.50;;;21.00;99.90;;;;;;3592540;40;20258;-80
2021/08/09 12:39:34;;;;;;;4.07;2.15;;;20.60;99.90;;;;;;3582615;40;20219;-79
2021/08/09 12:42:16;;;;;;;4.47;2.25;;;20.90;99.90;;;;;;3581974;40;20224;-79
2021/08/09 12:44:46;;;;;;;3.85;1.83;;;21.10;99.90;;;;;;3582419;40;20231;-80
2021/08/09 12:47:13;;;;;;;2.17;1.38;;;20.90;99.90;;;;;;3580903;40;20865;-78
2021/08/09 12:49:41;;;;;;;2.42;1.67;;;20.70;99.90;;;;;;3582599;40;20780;-78
2021/08/09 12:52:08;;;;;;;3.97;1.88;;;20.60;99.90;;;;;;3582491;40;20243;-78
2021/08/09 12:54:36;;;;;;;2.45;1.70;;;20.70;99.90;;;;;;3574122;40;20251;-79
2021/08/09 12:57:03;;;;;;;5.90;2.28;;;20.40;99.90;;;;;;3581305;40;20534;-79
2021/08/09 12:59:30;;;;;;;11.27;3.78;;;20.10;99.90;;;;;;3583281;40;20592;-77
2021/08/09 13:01:59;;;;;;;10.52;4.07;;;20.10;99.90;;;;;;3578332;40;20251;-83
2021/08/09 13:04:27;;;;;;;4.70;2.63;;;19.10;99.90;;;;;;3575209;40;20239;-78